Time;durP1;ratioP1;P1;durP2;ratioP2;P2;SDS_P1;SDS_P2;PMS_P1;PMS_P2;Temp;Humidity;BMP_temperature;BMP_pressure;BME280_temperature;BME280_humidity;BME280_pressure;Samples;Min_cycle;Max_cycle;Signal;HPM_P1;HPM_P2
2022/07/07 00:01:38;;;;;;;7.25;3.40;;;;;;;;;;5067603;28;20040;-75
2022/07/07 00:04:05;;;;;;;11.57;5.75;;;;;;;;;;5069819;28;20027;-75
2022/07/07 00:06:31;;;;;;;7.93;5.35;;;;;;;;;;5077840;28;20029;-75
2022/07/07 00:08:57;;;;;;;10.98;7.20;;;;;;;;;;5067828;28;20083;-74
2022/07/07 00:11:25;;;;;;;12.55;7.78;;;;;;;;;;5067515;28;20020;-74
2022/07/07 00:13:51;;;;;;;12.65;6.93;;;;;;;;;;5076373;28;20055;-75
2022/07/07 00:16:17;;;;;;;13.50;6.50;;;;;;;;;;5076245;28;20044;-75
2022/07/07 00:18:43;;;;;;;9.60;4.90;;;;;;;;;;5074708;28;20413;-74
2022/07/07 00:21:09;;;;;;;11.73;5.10;;;;;;;;;;5070882;28;20040;-75
2022/07/07 00:23:36;;;;;;;9.32;5.13;;;;;;;;;;5069156;28;20033;-75
2022/07/07 00:26:02;;;;;;;10.35;4.22;;;;;;;;;;5064866;28;20028;-74
2022/07/07 00:28:28;;;;;;;7.72;3.40;;;;;;;;;;5061926;28;20025;-75
2022/07/07 00:30:54;;;;;;;6.43;2.90;;;;;;;;;;5068321;28;20024;-74
2022/07/07 00:33:20;;;;;;;19.30;11.55;;;;;;;;;;5073593;28;20062;-74
2022/07/07 00:35:46;;;;;;;14.75;7.22;;;;;;;;;;5076005;28;20021;-74
2022/07/07 00:38:12;;;;;;;6.63;4.38;;;;;;;;;;5074853;28;20112;-74
2022/07/07 00:40:38;;;;;;;8.75;4.68;;;;;;;;;;5072695;28;20434;-75
2022/07/07 00:43:04;;;;;;;12.95;5.50;;;;;;;;;;5067745;28;20041;-75
2022/07/07 00:45:30;;;;;;;11.80;6.30;;;;;;;;;;5070540;28;20036;-75
2022/07/07 00:47:57;;;;;;;10.88;5.93;;;;;;;;;;5076086;28;20025;-74
2022/07/07 00:50:24;;;;;;;14.90;5.47;;;;;;;;;;5075821;28;20017;-75
2022/07/07 00:52:50;;;;;;;8.18;3.60;;;;;;;;;;5066995;28;20017;-74
2022/07/07 00:55:16;;;;;;;7.18;3.33;;;;;;;;;;5070455;28;20032;-75
2022/07/07 00:57:42;;;;;;;7.30;3.20;;;;;;;;;;5071766;28;20025;-75
2022/07/07 01:00:11;;;;;;;10.15;4.20;;;;;;;;;;5064360;28;20020;-74
2022/07/07 01:02:38;;;;;;;6.40;3.05;;;;;;;;;;5064206;28;20078;-74
2022/07/07 01:05:05;;;;;;;7.32;3.00;;;;;;;;;;5072716;28;20070;-75
2022/07/07 01:07:32;;;;;;;6.55;2.95;;;;;;;;;;5074583;28;20025;-75
2022/07/07 01:09:58;;;;;;;9.52;3.00;;;;;;;;;;5073267;28;20020;-74
2022/07/07 01:12:24;;;;;;;11.18;3.25;;;;;;;;;;5071659;28;20099;-75
2022/07/07 01:14:50;;;;;;;4.97;2.70;;;;;;;;;;5074625;28;20087;-74
2022/07/07 01:17:17;;;;;;;6.57;2.75;;;;;;;;;;5064060;28;20568;-75
2022/07/07 01:19:43;;;;;;;7.35;2.97;;;;;;;;;;5055218;28;20025;-75
2022/07/07 01:22:13;;;;;;;5.32;2.92;;;;;;;;;;5061080;28;20063;-75
2022/07/07 01:24:39;;;;;;;6.25;3.10;;;;;;;;;;5072736;28;20043;-75
2022/07/07 01:27:06;;;;;;;5.40;2.97;;;;;;;;;;5074848;28;20428;-75
2022/07/07 01:29:36;;;;;;;8.25;3.03;;;;;;;;;;5072511;28;20064;-74
2022/07/07 01:32:04;;;;;;;9.27;3.22;;;;;;;;;;5062448;28;20021;-75
2022/07/07 01:34:30;;;;;;;10.05;3.28;;;;;;;;;;5072752;28;20028;-75
2022/07/07 01:36:56;;;;;;;4.47;2.80;;;;;;;;;;5074130;28;20099;-74
2022/07/07 01:39:22;;;;;;;5.57;2.97;;;;;;;;;;5061216;28;20481;-75
2022/07/07 01:41:48;;;;;;;5.00;3.00;;;;;;;;;;5073800;28;20036;-75
2022/07/07 01:44:14;;;;;;;6.80;2.95;;;;;;;;;;5071127;28;20032;-75
2022/07/07 01:46:40;;;;;;;5.80;2.97;;;;;;;;;;5057068;28;20065;-75
2022/07/07 01:49:06;;;;;;;3.75;2.90;;;;;;;;;;5068054;28;20108;-74
2022/07/07 01:51:33;;;;;;;4.15;2.83;;;;;;;;;;5069125;28;20417;-75
2022/07/07 01:53:59;;;;;;;8.85;3.08;;;;;;;;;;5063149;28;20025;-74
2022/07/07 01:56:25;;;;;;;5.88;3.08;;;;;;;;;;5060534;28;20549;-74
2022/07/07 01:58:51;;;;;;;6.40;2.92;;;;;;;;;;5070188;28;20405;-75
2022/07/07 02:01:18;;;;;;;5.95;2.72;;;;;;;;;;5068028;28;20083;-74
2022/07/07 02:03:44;;;;;;;6.03;3.10;;;;;;;;;;5062739;28;20021;-75
2022/07/07 02:06:10;;;;;;;5.32;2.80;;;;;;;;;;5064868;28;20029;-74
2022/07/07 02:08:36;;;;;;;6.80;2.95;;;;;;;;;;5062967;28;20028;-74
2022/07/07 02:11:15;;;;;;;5.90;2.90;;;;;;;;;;5072817;28;20025;-75
2022/07/07 02:13:47;;;;;;;5.43;2.85;;;;;;;;;;5064600;28;20033;-74
2022/07/07 02:16:14;;;;;;;5.65;2.65;;;;;;;;;;5067107;28;20048;-75
2022/07/07 02:18:41;;;;;;;5.20;3.10;;;;;;;;;;5073293;28;20024;-74
2022/07/07 02:21:08;;;;;;;3.00;2.60;;;;;;;;;;5071509;28;20071;-75
2022/07/07 02:23:34;;;;;;;5.38;2.90;;;;;;;;;;5063824;28;20413;-75
2022/07/07 02:26:00;;;;;;;8.73;3.22;;;;;;;;;;5063090;28;20037;-75
2022/07/07 02:28:27;;;;;;;4.53;2.90;;;;;;;;;;5037049;28;20489;-75
2022/07/07 02:30:56;;;;;;;6.80;3.10;;;;;;;;;;5061089;28;20035;-74
2022/07/07 02:33:22;;;;;;;7.90;2.85;;;;;;;;;;5066626;28;20059;-75
2022/07/07 02:35:49;;;;;;;4.15;2.83;;;;;;;;;;5069966;28;20516;-74
2022/07/07 02:38:15;;;;;;;5.10;3.05;;;;;;;;;;5069405;28;20027;-74
2022/07/07 02:40:41;;;;;;;6.05;2.92;;;;;;;;;;5075790;28;20032;-75
2022/07/07 02:43:08;;;;;;;3.28;2.50;;;;;;;;;;5073733;28;20064;-75
2022/07/07 02:45:34;;;;;;;5.38;2.60;;;;;;;;;;5071983;28;20055;-75
2022/07/07 02:48:00;;;;;;;4.93;3.03;;;;;;;;;;5074051;28;20047;-75
2022/07/07 02:50:26;;;;;;;4.28;2.60;;;;;;;;;;5068773;28;20027;-74
2022/07/07 02:52:52;;;;;;;5.03;2.60;;;;;;;;;;5074166;28;20033;-75
2022/07/07 02:55:18;;;;;;;2.95;2.60;;;;;;;;;;5068883;28;20028;-75
2022/07/07 02:57:44;;;;;;;4.43;2.53;;;;;;;;;;5072246;28;20024;-75
2022/07/07 03:00:10;;;;;;;3.33;2.67;;;;;;;;;;5067978;28;20029;-75
2022/07/07 03:02:36;;;;;;;6.68;3.15;;;;;;;;;;5061109;28;20036;-75
2022/07/07 03:05:03;;;;;;;8.50;2.78;;;;;;;;;;5076520;28;20029;-75
2022/07/07 03:07:29;;;;;;;4.68;2.83;;;;;;;;;;5074790;28;20107;-74
2022/07/07 03:09:55;;;;;;;3.70;2.45;;;;;;;;;;5068860;28;20532;-75
2022/07/07 03:12:21;;;;;;;7.32;2.85;;;;;;;;;;5059466;28;20536;-75
2022/07/07 03:14:47;;;;;;;3.88;2.65;;;;;;;;;;5074301;28;20054;-75
2022/07/07 03:17:13;;;;;;;4.50;2.50;;;;;;;;;;5076945;28;20025;-75
2022/07/07 03:19:39;;;;;;;5.07;2.80;;;;;;;;;;5074688;28;20107;-75
2022/07/07 03:22:05;;;;;;;4.85;2.65;;;;;;;;;;5076132;28;20035;-75
2022/07/07 03:24:31;;;;;;;5.00;2.75;;;;;;;;;;5076555;28;20024;-75
2022/07/07 03:27:00;;;;;;;6.20;2.80;;;;;;;;;;5068002;28;20032;-75
2022/07/07 03:29:26;;;;;;;3.72;2.75;;;;;;;;;;5070118;28;20021;-74
2022/07/07 03:31:53;;;;;;;5.65;2.53;;;;;;;;;;5071597;28;20074;-75
2022/07/07 03:34:19;;;;;;;5.97;3.03;;;;;;;;;;5076319;28;20020;-75
2022/07/07 03:36:45;;;;;;;24.05;15.02;;;;;;;;;;5076994;28;20035;-75
2022/07/07 03:39:11;;;;;;;14.63;10.65;;;;;;;;;;5060837;28;20079;-74
2022/07/07 03:41:38;;;;;;;8.20;6.00;;;;;;;;;;5072943;28;20039;-75
2022/07/07 03:44:04;;;;;;;8.18;4.80;;;;;;;;;;5058954;28;20024;-74
2022/07/07 03:46:30;;;;;;;6.53;3.20;;;;;;;;;;5075513;28;20092;-75
2022/07/07 03:48:56;;;;;;;8.50;2.90;;;;;;;;;;5075694;28;20025;-75
2022/07/07 03:51:22;;;;;;;6.80;3.30;;;;;;;;;;5066999;28;20021;-75
2022/07/07 03:53:48;;;;;;;5.32;3.03;;;;;;;;;;5071401;28;20029;-75
2022/07/07 03:56:15;;;;;;;9.95;3.50;;;;;;;;;;5076328;28;20016;-75
2022/07/07 03:58:41;;;;;;;9.70;3.40;;;;;;;;;;5076228;28;20028;-74
2022/07/07 04:01:07;;;;;;;10.73;4.00;;;;;;;;;;5074791;28;20422;-76
2022/07/07 04:03:33;;;;;;;5.35;2.90;;;;;;;;;;5070127;28;20098;-76
2022/07/07 04:05:59;;;;;;;8.38;3.40;;;;;;;;;;5072439;28;20095;-75
2022/07/07 04:08:25;;;;;;;6.65;3.40;;;;;;;;;;5075106;28;20024;-74
2022/07/07 04:10:51;;;;;;;8.18;3.20;;;;;;;;;;5074441;28;20104;-74
2022/07/07 04:13:18;;;;;;;10.23;3.67;;;;;;;;;;5080424;28;20031;-76
2022/07/07 04:15:44;;;;;;;9.25;3.60;;;;;;;;;;5075054;28;20053;-74
2022/07/07 04:18:11;;;;;;;10.75;3.20;;;;;;;;;;5074343;28;20085;-75
2022/07/07 04:20:37;;;;;;;8.27;3.53;;;;;;;;;;5071557;28;20039;-74
2022/07/07 04:23:03;;;;;;;4.53;2.90;;;;;;;;;;5061561;28;20029;-74
2022/07/07 04:25:29;;;;;;;10.90;3.67;;;;;;;;;;5069914;28;20158;-74
2022/07/07 04:27:55;;;;;;;7.82;3.53;;;;;;;;;;5071722;28;20032;-74
2022/07/07 04:30:21;;;;;;;8.18;3.40;;;;;;;;;;5069640;28;20094;-74
2022/07/07 04:32:47;;;;;;;7.07;3.20;;;;;;;;;;5069651;28;20024;-74
2022/07/07 04:35:13;;;;;;;8.27;3.50;;;;;;;;;;5073232;28;20039;-74
2022/07/07 04:37:39;;;;;;;7.07;3.55;;;;;;;;;;5059525;28;20037;-75
2022/07/07 04:40:06;;;;;;;7.93;3.50;;;;;;;;;;5059970;28;20013;-75
2022/07/07 04:42:32;;;;;;;10.75;3.70;;;;;;;;;;5075058;28;20037;-74
2022/07/07 04:44:59;;;;;;;6.82;3.58;;;;;;;;;;5066391;28;20037;-75
2022/07/07 04:47:25;;;;;;;7.25;3.60;;;;;;;;;;5071045;28;20052;-74
2022/07/07 04:49:52;;;;;;;6.68;3.22;;;;;;;;;;5069552;28;20033;-75
2022/07/07 04:52:18;;;;;;;7.22;3.53;;;;;;;;;;5071670;28;20029;-74
2022/07/07 04:54:44;;;;;;;7.18;4.10;;;;;;;;;;5061894;28;20040;-75
2022/07/07 04:57:10;;;;;;;4.65;3.42;;;;;;;;;;5055679;28;20060;-74
2022/07/07 04:59:36;;;;;;;6.75;3.25;;;;;;;;;;5072784;28;20393;-74
2022/07/07 05:02:02;;;;;;;6.38;3.70;;;;;;;;;;5074027;28;20060;-75
2022/07/07 05:04:28;;;;;;;7.45;3.40;;;;;;;;;;5069525;28;20024;-75
2022/07/07 05:06:55;;;;;;;7.65;3.80;;;;;;;;;;5047376;28;20035;-75
2022/07/07 05:09:21;;;;;;;10.73;3.58;;;;;;;;;;5042001;28;20037;-75
2022/07/07 05:11:47;;;;;;;4.57;3.60;;;;;;;;;;5061409;28;20024;-76
2022/07/07 05:14:13;;;;;;;6.70;3.95;;;;;;;;;;5066206;28;20045;-77
2022/07/07 05:16:39;;;;;;;5.07;4.00;;;;;;;;;;5067980;28;20032;-78
2022/07/07 05:19:09;;;;;;;8.10;4.07;;;;;;;;;;5069874;28;20033;-79
2022/07/07 05:21:35;;;;;;;8.68;3.80;;;;;;;;;;5072203;28;20032;-73
2022/07/07 05:24:01;;;;;;;6.38;3.60;;;;;;;;;;5070644;28;20028;-76
2022/07/07 05:26:27;;;;;;;5.47;3.40;;;;;;;;;;5054209;28;20086;-74
2022/07/07 05:28:53;;;;;;;6.57;3.80;;;;;;;;;;5069797;28;20507;-72
2022/07/07 05:31:19;;;;;;;4.95;3.35;;;;;;;;;;5071485;28;20100;-76
2022/07/07 05:33:45;;;;;;;4.82;3.40;;;;;;;;;;5069537;28;20031;-73
2022/07/07 05:36:11;;;;;;;6.82;3.72;;;;;;;;;;5064020;28;20033;-73
2022/07/07 05:38:37;;;;;;;6.00;3.30;;;;;;;;;;5060351;28;20100;-74
2022/07/07 05:41:04;;;;;;;7.55;4.20;;;;;;;;;;5065914;28;20027;-74
2022/07/07 05:43:30;;;;;;;6.82;3.90;;;;;;;;;;5064198;28;20060;-71
2022/07/07 05:45:56;;;;;;;5.82;3.80;;;;;;;;;;5058990;28;20020;-74
2022/07/07 05:48:22;;;;;;;9.23;3.80;;;;;;;;;;5064656;28;20106;-75
2022/07/07 05:50:48;;;;;;;11.65;3.72;;;;;;;;;;5058194;28;20052;-76
2022/07/07 05:53:14;;;;;;;6.97;3.80;;;;;;;;;;5062048;28;20393;-70
2022/07/07 05:55:40;;;;;;;5.63;3.60;;;;;;;;;;5067210;28;20604;-70
2022/07/07 05:58:07;;;;;;;7.00;3.83;;;;;;;;;;5058423;28;20033;-72
2022/07/07 06:00:34;;;;;;;12.13;3.90;;;;;;;;;;5060593;28;20029;-76
2022/07/07 06:03:00;;;;;;;7.95;3.88;;;;;;;;;;5064230;28;20044;-80
2022/07/07 06:05:27;;;;;;;10.52;4.10;;;;;;;;;;5066496;28;20103;-79
2022/07/07 06:07:53;;;;;;;7.35;4.15;;;;;;;;;;5066688;28;20103;-73
2022/07/07 06:10:19;;;;;;;9.95;4.32;;;;;;;;;;5063917;28;20094;-73
2022/07/07 06:12:45;;;;;;;6.65;3.45;;;;;;;;;;5040591;28;20475;-72
2022/07/07 06:15:11;;;;;;;6.75;3.67;;;;;;;;;;5062191;28;20052;-73
2022/07/07 06:17:37;;;;;;;10.20;3.83;;;;;;;;;;5068571;28;20536;-73
2022/07/07 06:20:04;;;;;;;11.13;3.90;;;;;;;;;;5070764;28;20042;-75
2022/07/07 06:22:30;;;;;;;7.50;3.63;;;;;;;;;;5070553;28;20440;-77
2022/07/07 06:24:56;;;;;;;9.48;3.85;;;;;;;;;;5068114;28;20052;-89
2022/07/07 06:27:22;;;;;;;8.43;3.35;;;;;;;;;;5049710;28;20036;-86
2022/07/07 06:29:48;;;;;;;17.23;4.40;;;;;;;;;;5050873;28;20048;-74
2022/07/07 06:32:15;;;;;;;8.45;3.72;;;;;;;;;;5071643;28;20363;-74
2022/07/07 06:34:42;;;;;;;6.20;3.50;;;;;;;;;;5074751;28;20103;-74
2022/07/07 06:37:08;;;;;;;8.23;3.65;;;;;;;;;;5071236;28;20090;-73
2022/07/07 06:39:34;;;;;;;4.20;3.40;;;;;;;;;;5069350;28;20025;-73
2022/07/07 06:42:00;;;;;;;9.10;3.63;;;;;;;;;;5073210;28;20498;-77
2022/07/07 06:44:32;;;;;;;7.95;3.88;;;;;;;;;;5068747;28;20043;-74
2022/07/07 06:46:58;;;;;;;21.55;4.68;;;;;;;;;;5070844;28;20031;-75
2022/07/07 06:49:29;;;;;;;92.05;8.73;;;;;;;;;;5062759;28;20091;-81
2022/07/07 06:51:56;;;;;;;41.95;6.80;;;;;;;;;;5069964;28;20028;-81
2022/07/07 06:54:22;;;;;;;25.92;4.57;;;;;;;;;;5065345;28;20031;-78
2022/07/07 06:56:49;;;;;;;6.22;3.83;;;;;;;;;;5067302;28;20029;-80
2022/07/07 06:59:15;;;;;;;9.35;4.20;;;;;;;;;;5063180;28;20613;-80
2022/07/07 07:01:42;;;;;;;7.68;4.25;;;;;;;;;;5063808;28;20047;-73
2022/07/07 07:04:09;;;;;;;7.82;4.28;;;;;;;;;;5063079;28;20021;-82
2022/07/07 07:06:35;;;;;;;11.57;5.78;;;;;;;;;;5051165;28;20490;-82
2022/07/07 07:09:02;;;;;;;9.52;4.63;;;;;;;;;;5045958;28;20042;-81
2022/07/07 07:11:28;;;;;;;10.77;4.45;;;;;;;;;;5065519;28;20017;-80
2022/07/07 07:13:56;;;;;;;24.17;4.88;;;;;;;;;;5063363;28;20098;-80
2022/07/07 07:16:22;;;;;;;7.25;4.80;;;;;;;;;;5047842;28;20024;-77
2022/07/07 07:18:48;;;;;;;16.17;5.25;;;;;;;;;;5046186;28;20036;-78
2022/07/07 07:21:14;;;;;;;24.15;6.28;;;;;;;;;;5054588;28;20044;-75
2022/07/07 07:23:40;;;;;;;10.82;4.78;;;;;;;;;;5071024;28;20064;-78
2022/07/07 07:26:07;;;;;;;14.23;4.78;;;;;;;;;;5067619;28;20092;-76
2022/07/07 07:28:34;;;;;;;11.77;4.40;;;;;;;;;;5066116;28;20036;-80
2022/07/07 07:31:00;;;;;;;10.48;4.35;;;;;;;;;;5052305;28;20028;-81
2022/07/07 07:33:27;;;;;;;18.75;5.15;;;;;;;;;;5070345;28;20024;-83
2022/07/07 07:35:53;;;;;;;14.40;4.53;;;;;;;;;;5052134;28;20198;-82
2022/07/07 07:38:19;;;;;;;8.30;4.05;;;;;;;;;;5045266;28;20021;-80
2022/07/07 07:40:45;;;;;;;14.68;5.10;;;;;;;;;;5046735;28;20033;-77
2022/07/07 07:43:11;;;;;;;10.20;5.18;;;;;;;;;;5067009;28;20167;-78
2022/07/07 07:45:38;;;;;;;25.20;14.45;;;;;;;;;;5060311;28;20435;-80
2022/07/07 07:48:04;;;;;;;18.55;8.65;;;;;;;;;;5063736;28;20027;-76
2022/07/07 07:50:31;;;;;;;13.27;4.93;;;;;;;;;;5072096;28;20494;-76
2022/07/07 07:52:57;;;;;;;19.42;8.15;;;;;;;;;;5074122;28;20474;-81
2022/07/07 07:55:24;;;;;;;38.95;19.55;;;;;;;;;;5063767;28;20028;-81
2022/07/07 07:57:50;;;;;;;10.25;4.20;;;;;;;;;;5052723;28;20064;-81
2022/07/07 08:00:19;;;;;;;28.02;13.15;;;;;;;;;;5043582;28;20024;-84
2022/07/07 08:02:45;;;;;;;15.30;8.10;;;;;;;;;;5048666;28;20051;-82
2022/07/07 08:05:12;;;;;;;9.15;3.72;;;;;;;;;;5054346;28;20032;-79
2022/07/07 08:07:38;;;;;;;12.07;4.75;;;;;;;;;;5066665;28;20057;-80
2022/07/07 08:10:04;;;;;;;13.15;3.17;;;;;;;;;;5068036;28;20017;-75
2022/07/07 08:12:31;;;;;;;8.70;2.90;;;;;;;;;;5058566;28;20037;-77
2022/07/07 08:14:57;;;;;;;19.23;3.42;;;;;;;;;;5060261;28;20045;-76
2022/07/07 08:17:23;;;;;;;7.45;3.28;;;;;;;;;;5065499;28;20100;-77
2022/07/07 08:19:49;;;;;;;4.90;2.70;;;;;;;;;;5060233;28;20025;-77
2022/07/07 08:22:15;;;;;;;4.85;2.42;;;;;;;;;;5064113;28;20045;-76
2022/07/07 08:24:41;;;;;;;7.90;2.88;;;;;;;;;;5061311;28;20070;-81
2022/07/07 08:27:08;;;;;;;10.73;2.60;;;;;;;;;;5075395;28;20024;-80
2022/07/07 08:29:38;;;;;;;7.18;2.70;;;;;;;;;;5064497;28;20497;-80
2022/07/07 08:32:05;;;;;;;6.43;3.28;;;;;;;;;;5067399;28;20381;-83
2022/07/07 08:34:31;;;;;;;8.05;3.15;;;;;;;;;;5065832;28;20028;-86
2022/07/07 08:36:57;;;;;;;8.75;3.00;;;;;;;;;;5055004;28;20426;-82
2022/07/07 08:39:23;;;;;;;6.20;2.90;;;;;;;;;;5045064;28;20086;-85
2022/07/07 08:41:49;;;;;;;10.32;3.45;;;;;;;;;;5054469;28;20041;-80
2022/07/07 08:44:15;;;;;;;6.35;3.03;;;;;;;;;;5068916;28;20473;-76
2022/07/07 08:46:42;;;;;;;13.45;2.97;;;;;;;;;;5062149;28;20103;-80
2022/07/07 08:49:09;;;;;;;5.78;2.85;;;;;;;;;;5070296;28;20028;-77
2022/07/07 08:51:39;;;;;;;7.88;3.10;;;;;;;;;;5069704;28;20082;-86
2022/07/07 08:54:05;;;;;;;6.88;2.90;;;;;;;;;;5062957;28;20385;-81
2022/07/07 08:56:32;;;;;;;6.50;2.70;;;;;;;;;;5067900;28;20028;-88
2022/07/07 08:58:58;;;;;;;5.95;2.83;;;;;;;;;;5054744;28;20032;-76
2022/07/07 09:01:24;;;;;;;5.53;2.90;;;;;;;;;;5064286;28;20056;-79
2022/07/07 09:03:53;;;;;;;10.85;3.20;;;;;;;;;;5066571;28;20412;-78
2022/07/07 09:06:20;;;;;;;4.85;2.63;;;;;;;;;;5049428;28;20021;-76
2022/07/07 09:08:46;;;;;;;5.40;2.85;;;;;;;;;;5069241;28;20029;-81
2022/07/07 09:11:12;;;;;;;11.48;2.92;;;;;;;;;;5056473;28;20079;-81
2022/07/07 09:13:38;;;;;;;8.15;3.03;;;;;;;;;;5068693;28;20027;-83
2022/07/07 09:16:05;;;;;;;6.40;2.33;;;;;;;;;;5059833;28;20032;-83
2022/07/07 09:18:39;;;;;;;8.00;2.85;;;;;;;;;;5044799;28;20064;-86
2022/07/07 09:21:06;;;;;;;5.03;2.40;;;;;;;;;;5047936;28;20378;-81
2022/07/07 09:23:33;;;;;;;5.95;2.58;;;;;;;;;;5069019;28;20045;-83
2022/07/07 09:26:00;;;;;;;4.20;2.60;;;;;;;;;;5061756;28;20112;-77
2022/07/07 09:28:27;;;;;;;5.30;2.50;;;;;;;;;;5068773;28;20074;-76
2022/07/07 09:30:53;;;;;;;8.48;2.88;;;;;;;;;;5060157;28;20062;-75
2022/07/07 09:33:20;;;;;;;4.18;2.50;;;;;;;;;;5063253;28;20024;-74
2022/07/07 09:38:31;;;;;;;7.40;2.50;;;;;;;;;;5068373;28;20082;-75
2022/07/07 09:41:05;;;;;;;8.07;2.47;;;;;;;;;;5070796;28;20028;-75
2022/07/07 09:43:34;;;;;;;3.13;2.28;;;;;;;;;;5059061;28;20103;-77
2022/07/07 09:46:17;;;;;;;3.17;2.38;;;;;;;;;;5066300;28;20033;-78
2022/07/07 09:48:43;;;;;;;;;;;;;;;;;;5066197;28;20028;-79
2022/07/07 09:51:10;;;;;;;5.22;2.85;;;;;;;;;;5061410;28;19915;-85
2022/07/07 09:53:51;;;;;;;7.80;2.72;;;;;;;;;;5043632;28;20028;-76
2022/07/07 09:56:18;;;;;;;8.23;3.13;;;;;;;;;;5063203;28;20041;-73
2022/07/07 09:58:44;;;;;;;7.03;2.70;;;;;;;;;;5062449;28;20021;-73
2022/07/07 10:01:11;;;;;;;6.15;2.70;;;;;;;;;;5063177;28;20029;-75
2022/07/07 10:03:37;;;;;;;9.25;2.90;;;;;;;;;;5065917;28;20021;-72
2022/07/07 10:06:04;;;;;;;4.50;2.45;;;;;;;;;;5067795;28;20025;-79
2022/07/07 10:08:31;;;;;;;8.05;2.70;;;;;;;;;;5069747;28;20032;-78
2022/07/07 10:10:57;;;;;;;3.22;2.53;;;;;;;;;;5071789;28;20016;-78
2022/07/07 10:13:24;;;;;;;6.82;2.60;;;;;;;;;;5069908;28;20116;-79
2022/07/07 10:15:50;;;;;;;14.45;3.15;;;;;;;;;;5067742;28;20094;-85
2022/07/07 10:18:16;;;;;;;5.85;2.50;;;;;;;;;;5047718;28;20060;-92
2022/07/07 10:20:44;;;;;;;7.35;2.88;;;;;;;;;;5062488;28;20024;-82
2022/07/07 10:23:11;;;;;;;6.90;2.60;;;;;;;;;;5069042;28;20032;-78
2022/07/07 10:25:37;;;;;;;4.50;2.63;;;;;;;;;;5070210;28;20033;-80
2022/07/07 10:28:03;;;;;;;8.45;3.28;;;;;;;;;;5065220;28;20027;-78
2022/07/07 10:30:33;;;;;;;4.40;2.47;;;;;;;;;;5059857;28;20021;-80
2022/07/07 10:32:59;;;;;;;13.85;3.33;;;;;;;;;;5066098;28;20039;-85
2022/07/07 10:35:27;;;;;;;4.35;2.40;;;;;;;;;;5044011;28;20086;-81
2022/07/07 10:37:54;;;;;;;8.50;2.88;;;;;;;;;;5060529;28;20455;-83
2022/07/07 10:40:27;;;;;;;3.55;2.45;;;;;;;;;;5062403;28;20024;-82
2022/07/07 10:43:16;;;;;;;6.00;2.65;;;;;;;;;;5059248;28;20036;-75
2022/07/07 10:45:46;;;;;;;5.60;2.83;;;;;;;;;;5050473;28;20036;-80
2022/07/07 10:48:31;;;;;;;3.90;2.45;;;;;;;;;;5064540;28;20525;-82
2022/07/07 10:51:15;;;;;;;5.05;2.78;;;;;;;;;;5063588;28;20029;-82
2022/07/07 10:53:54;;;;;;;25.08;3.17;;;;;;;;;;5064852;28;20386;-82
2022/07/07 10:56:20;;;;;;;2.83;2.35;;;;;;;;;;5063600;28;20167;-85
2022/07/07 10:58:53;;;;;;;3.88;2.60;;;;;;;;;;5042588;28;20548;-86
2022/07/07 11:01:26;;;;;;;5.45;2.50;;;;;;;;;;5044303;28;20124;-83
2022/07/07 11:03:52;;;;;;;7.10;2.50;;;;;;;;;;5045528;28;20037;-85
2022/07/07 11:06:18;;;;;;;4.80;2.47;;;;;;;;;;5067718;28;20020;-76
2022/07/07 11:08:54;;;;;;;3.25;2.25;;;;;;;;;;5065169;28;20025;-79
2022/07/07 11:11:21;;;;;;;16.08;2.97;;;;;;;;;;5068496;28;20044;-82
2022/07/07 11:13:47;;;;;;;3.22;2.40;;;;;;;;;;5069596;28;20055;-85
2022/07/07 11:16:23;;;;;;;10.68;2.85;;;;;;;;;;5048905;28;20063;-81
2022/07/07 11:18:57;;;;;;;3.90;2.65;;;;;;;;;;5056528;28;20032;-87
2022/07/07 11:21:33;;;;;;;4.72;2.40;;;;;;;;;;5048119;28;20041;-86
2022/07/07 11:23:59;;;;;;;4.05;2.30;;;;;;;;;;5077166;28;20386;-85
2022/07/07 11:26:26;;;;;;;5.03;2.35;;;;;;;;;;5061092;28;20104;-86
2022/07/07 11:28:57;;;;;;;8.75;2.28;;;;;;;;;;5051633;28;20419;-86
2022/07/07 11:31:23;;;;;;;4.00;2.22;;;;;;;;;;5064728;28;20025;-83
2022/07/07 11:33:54;;;;;;;3.33;2.60;;;;;;;;;;5070270;28;20029;-85
2022/07/07 11:36:22;;;;;;;2.97;2.20;;;;;;;;;;5072486;28;20035;-85
2022/07/07 11:38:51;;;;;;;5.72;2.65;;;;;;;;;;5067851;28;20056;-86
2022/07/07 11:41:17;;;;;;;3.97;2.30;;;;;;;;;;5047747;28;20033;-87
2022/07/07 11:43:43;;;;;;;5.47;2.60;;;;;;;;;;5053641;28;20390;-78
2022/07/07 11:46:10;;;;;;;6.03;2.45;;;;;;;;;;5067257;28;20497;-79
2022/07/07 11:48:37;;;;;;;3.25;2.25;;;;;;;;;;5056853;28;20061;-86
2022/07/07 11:51:03;;;;;;;5.65;2.40;;;;;;;;;;5062759;28;20020;-86
2022/07/07 11:53:30;;;;;;;8.32;2.80;;;;;;;;;;5066323;28;20118;-88
2022/07/07 11:55:57;;;;;;;3.22;2.30;;;;;;;;;;5063488;28;20021;-87
2022/07/07 11:58:23;;;;;;;6.15;2.53;;;;;;;;;;5054847;28;20032;-83
2022/07/07 12:00:54;;;;;;;3.38;2.40;;;;;;;;;;5052297;28;20410;-80
2022/07/07 12:03:27;;;;;;;3.67;2.30;;;;;;;;;;5060851;28;20048;-81
2022/07/07 12:05:53;;;;;;;6.20;2.38;;;;;;;;;;5065444;28;20024;-82
2022/07/07 12:08:19;;;;;;;5.75;2.40;;;;;;;;;;5071632;28;20026;-82
2022/07/07 12:10:52;;;;;;;3.28;2.38;;;;;;;;;;5065801;28;20024;-85
2022/07/07 12:13:18;;;;;;;3.90;2.33;;;;;;;;;;5043537;28;20466;-84
2022/07/07 12:15:46;;;;;;;5.75;2.50;;;;;;;;;;5043252;28;20127;-85
2022/07/07 12:18:13;;;;;;;10.05;2.40;;;;;;;;;;5039162;28;20033;-78
2022/07/07 12:20:40;;;;;;;2.53;2.20;;;;;;;;;;5067602;28;20020;-86
2022/07/07 12:23:08;;;;;;;4.82;2.45;;;;;;;;;;5064144;28;20037;-83
2022/07/07 12:25:35;;;;;;;2.25;2.05;;;;;;;;;;5065553;28;20029;-80
2022/07/07 12:28:05;;;;;;;3.28;2.20;;;;;;;;;;5074588;28;20036;-82
2022/07/07 12:30:32;;;;;;;3.60;2.13;;;;;;;;;;5046389;28;20068;-82
2022/07/07 12:32:59;;;;;;;17.60;2.60;;;;;;;;;;5066576;28;20058;-84
2022/07/07 12:35:37;;;;;;;6.50;2.40;;;;;;;;;;5042239;28;20053;-85
2022/07/07 12:38:04;;;;;;;2.85;2.03;;;;;;;;;;5046273;28;20032;-81
2022/07/07 12:40:31;;;;;;;3.85;2.40;;;;;;;;;;5068388;28;20115;-86
2022/07/07 12:42:58;;;;;;;17.88;2.50;;;;;;;;;;5068700;28;20081;-81
2022/07/07 12:45:24;;;;;;;3.67;2.30;;;;;;;;;;5067717;28;20155;-86
2022/07/07 12:47:52;;;;;;;2.95;2.00;;;;;;;;;;5047092;28;20060;-89
2022/07/07 12:50:18;;;;;;;3.65;2.25;;;;;;;;;;5071860;28;20040;-82
2022/07/07 12:53:01;;;;;;;4.05;1.92;;;;;;;;;;5055383;28;20024;-83
2022/07/07 12:55:37;;;;;;;6.70;2.30;;;;;;;;;;5063190;28;20029;-83
2022/07/07 12:58:06;;;;;;;4.93;2.38;;;;;;;;;;5054201;28;20028;-82
2022/07/07 13:00:32;;;;;;;5.90;2.35;;;;;;;;;;5071776;28;20041;-87
2022/07/07 13:02:58;;;;;;;5.75;2.35;;;;;;;;;;5078658;28;20051;-79
2022/07/07 13:05:24;;;;;;;8.60;2.70;;;;;;;;;;5057016;28;20059;-81
2022/07/07 13:07:50;;;;;;;5.00;2.42;;;;;;;;;;5068958;28;20028;-81
2022/07/07 13:10:18;;;;;;;25.88;3.22;;;;;;;;;;5063834;28;20028;-84
2022/07/07 13:12:47;;;;;;;6.40;2.33;;;;;;;;;;5048094;28;20046;-82
2022/07/07 13:15:13;;;;;;;6.15;2.72;;;;;;;;;;5045432;28;20098;-83
2022/07/07 13:17:40;;;;;;;5.00;2.55;;;;;;;;;;5045467;28;20442;-83
2022/07/07 13:20:06;;;;;;;5.28;2.10;;;;;;;;;;5047742;28;20021;-87
2022/07/07 13:22:35;;;;;;;5.45;2.30;;;;;;;;;;5044085;28;20056;-82
2022/07/07 13:25:01;;;;;;;6.18;2.30;;;;;;;;;;5038942;28;20048;-85
2022/07/07 13:27:27;;;;;;;9.07;2.38;;;;;;;;;;5052683;28;20417;-86
2022/07/07 13:29:54;;;;;;;3.80;2.00;;;;;;;;;;5048166;28;20018;-89
2022/07/07 13:32:21;;;;;;;10.90;2.67;;;;;;;;;;5049389;28;20204;-84
2022/07/07 13:34:47;;;;;;;5.03;2.10;;;;;;;;;;5044925;28;20021;-85
2022/07/07 13:37:13;;;;;;;3.80;2.20;;;;;;;;;;5052322;28;20106;-84
2022/07/07 13:39:39;;;;;;;3.83;2.00;;;;;;;;;;5036714;28;20029;-85
2022/07/07 13:42:06;;;;;;;6.68;2.50;;;;;;;;;;5046997;28;20040;-85
2022/07/07 13:44:32;;;;;;;6.80;2.38;;;;;;;;;;5053229;28;20024;-86
2022/07/07 13:46:58;;;;;;;11.50;2.63;;;;;;;;;;5052547;28;20411;-86
2022/07/07 13:49:24;;;;;;;4.00;2.47;;;;;;;;;;5052747;28;20017;-88
2022/07/07 13:51:50;;;;;;;4.82;2.30;;;;;;;;;;5052256;28;20029;-85
2022/07/07 13:54:17;;;;;;;2.45;2.05;;;;;;;;;;5050756;28;20055;-84
2022/07/07 13:56:49;;;;;;;5.18;2.17;;;;;;;;;;5041567;28;20049;-87
2022/07/07 13:59:17;;;;;;;4.47;2.10;;;;;;;;;;5031580;28;20035;-87
2022/07/07 14:01:43;;;;;;;11.25;2.40;;;;;;;;;;5041708;28;20478;-86
2022/07/07 14:04:09;;;;;;;4.85;2.17;;;;;;;;;;5044322;28;20041;-87
2022/07/07 14:06:35;;;;;;;7.38;2.60;;;;;;;;;;5042122;28;20466;-83
2022/07/07 14:09:07;;;;;;;3.10;2.20;;;;;;;;;;5053187;28;20479;-84
2022/07/07 14:11:33;;;;;;;9.85;2.85;;;;;;;;;;5046371;28;20034;-88
2022/07/07 14:13:59;;;;;;;6.05;2.78;;;;;;;;;;5057563;28;20040;-85
2022/07/07 14:16:25;;;;;;;5.75;2.30;;;;;;;;;;5074807;28;20386;-87
2022/07/07 14:18:52;;;;;;;5.53;2.30;;;;;;;;;;5080684;28;20027;-84
2022/07/07 14:21:19;;;;;;;9.32;2.55;;;;;;;;;;5055513;28;20029;-85
2022/07/07 14:23:45;;;;;;;6.78;3.03;;;;;;;;;;5070475;28;20070;-87
2022/07/07 14:26:11;;;;;;;4.53;2.60;;;;;;;;;;5069260;28;20056;-82
2022/07/07 14:28:38;;;;;;;4.90;2.67;;;;;;;;;;5069856;28;20038;-87
2022/07/07 14:31:04;;;;;;;5.60;2.60;;;;;;;;;;5068819;28;20017;-86
2022/07/07 14:33:30;;;;;;;5.20;2.50;;;;;;;;;;5071818;28;20063;-83
2022/07/07 14:35:56;;;;;;;4.03;2.08;;;;;;;;;;5059761;28;20033;-86
2022/07/07 14:38:22;;;;;;;11.40;2.88;;;;;;;;;;5076007;28;20027;-86
2022/07/07 14:40:48;;;;;;;10.73;2.78;;;;;;;;;;5076082;28;20031;-76
2022/07/07 14:43:14;;;;;;;4.53;2.22;;;;;;;;;;5078048;28;20036;-87